createdAt,value
2018-07-11T00:01:56.053Z,8.43
2018-07-11T00:04:24.696Z,8.40
2018-07-11T00:06:52.799Z,8.47
2018-07-11T00:09:21.996Z,7.87
2018-07-11T00:11:50.460Z,8.43
2018-07-11T00:14:18.543Z,8.87
2018-07-11T00:16:52.132Z,9.50
2018-07-11T00:19:21.695Z,8.65
2018-07-11T00:21:50.019Z,9.37
2018-07-11T00:24:18.684Z,8.70
2018-07-11T00:26:47.035Z,9.27
2018-07-11T00:29:15.604Z,9.40
2018-07-11T00:31:43.943Z,8.67
2018-07-11T00:34:12.528Z,8.60
2018-07-11T00:36:41.373Z,9.73
2018-07-11T00:39:09.720Z,9.13
2018-07-11T00:41:38.093Z,9.23
2018-07-11T00:44:06.617Z,8.50
2018-07-11T00:46:34.955Z,8.50
2018-07-11T00:49:03.595Z,8.10
2018-07-11T00:51:31.924Z,9.15
2018-07-11T00:54:00.280Z,8.67
2018-07-11T00:56:28.819Z,9.40
2018-07-11T00:59:03.231Z,8.50
2018-07-11T01:01:31.927Z,8.95
2018-07-11T01:04:01.213Z,10.40
2018-07-11T01:06:30.070Z,10.23
2018-07-11T01:08:59.240Z,9.97
2018-07-11T01:11:32.260Z,10.40
2018-07-11T01:14:00.452Z,10.50
2018-07-11T01:16:29.641Z,9.33
2018-07-11T01:19:00.030Z,10.70
2018-07-11T01:21:29.580Z,10.30
2018-07-11T01:23:58.016Z,10.13
2018-07-11T01:26:28.065Z,10.07
2018-07-11T01:28:56.871Z,10.03
2018-07-11T01:31:26.124Z,9.88
2018-07-11T01:33:54.859Z,9.37
2018-07-11T01:36:23.728Z,10.13
2018-07-11T01:38:52.301Z,10.97
2018-07-11T01:41:22.259Z,10.90
2018-07-11T01:43:51.278Z,9.43
2018-07-11T01:46:19.513Z,8.87
2018-07-11T01:48:47.928Z,9.13
2018-07-11T01:51:16.267Z,9.47
2018-07-11T01:53:44.870Z,10.17
2018-07-11T01:56:13.744Z,9.97
2018-07-11T01:58:44.010Z,10.27
2018-07-11T02:01:12.728Z,10.13
2018-07-11T02:03:41.121Z,10.83
2018-07-11T02:06:09.743Z,11.22
2018-07-11T02:08:38.321Z,10.75
2018-07-11T02:11:06.636Z,9.80
2018-07-11T02:13:35.160Z,11.50
2018-07-11T02:16:03.531Z,11.27
2018-07-11T02:18:31.848Z,12.35
2018-07-11T02:21:00.228Z,10.17
2018-07-11T02:23:38.835Z,10.10
2018-07-11T02:26:07.206Z,11.00
2018-07-11T02:28:36.111Z,11.88
2018-07-11T02:31:04.508Z,9.83
2018-07-11T02:33:33.160Z,10.50
2018-07-11T02:36:01.951Z,10.17
2018-07-11T02:38:30.541Z,9.83
2018-07-11T02:40:58.933Z,11.33
2018-07-11T02:43:27.573Z,10.32
2018-07-11T02:45:55.921Z,10.90
2018-07-11T02:48:24.300Z,11.20
2018-07-11T02:50:52.957Z,10.95
2018-07-11T02:53:23.823Z,10.80
2018-07-11T02:55:52.880Z,10.67
2018-07-11T02:58:22.126Z,12.80
2018-07-11T03:00:51.036Z,11.53
2018-07-11T03:03:19.345Z,11.30
2018-07-11T03:05:47.803Z,10.77
2018-07-11T03:08:16.963Z,10.67
2018-07-11T03:10:46.238Z,11.15
2018-07-11T03:13:16.040Z,11.87
2018-07-11T03:15:44.472Z,12.10
2018-07-11T03:18:13.136Z,12.17
2018-07-11T03:20:41.295Z,10.07
2018-07-11T03:23:10.093Z,10.90
2018-07-11T03:25:38.484Z,11.50
2018-07-11T03:28:07.249Z,10.07
2018-07-11T03:30:35.980Z,10.90
2018-07-11T03:33:04.416Z,13.23
2018-07-11T03:35:32.837Z,10.70
2018-07-11T03:38:01.168Z,10.20
2018-07-11T03:40:29.888Z,11.10
2018-07-11T03:42:58.650Z,10.30
2018-07-11T03:45:27.136Z,11.57
2018-07-11T03:47:55.288Z,10.37
2018-07-11T03:50:24.042Z,12.05
2018-07-11T03:52:52.375Z,11.97
2018-07-11T03:55:20.480Z,11.63
2018-07-11T03:57:49.292Z,11.90
2018-07-11T04:00:17.416Z,12.40
2018-07-11T04:02:45.831Z,12.33
2018-07-11T04:05:14.001Z,11.73
2018-07-11T04:07:42.680Z,11.93
2018-07-11T04:10:11.347Z,10.53
2018-07-11T04:12:39.570Z,11.28
2018-07-11T04:15:07.952Z,10.50
2018-07-11T04:17:36.181Z,12.00
2018-07-11T04:20:04.285Z,12.10
2018-07-11T04:22:32.732Z,10.90
2018-07-11T04:25:01.024Z,11.37
2018-07-11T04:27:29.285Z,11.10
2018-07-11T04:29:57.648Z,11.87
2018-07-11T04:32:26.451Z,11.03
2018-07-11T04:34:55.056Z,10.63
2018-07-11T04:37:23.603Z,12.30
2018-07-11T04:39:52.264Z,9.50
2018-07-11T04:52:05.584Z,12.57
2018-07-11T04:54:34.263Z,8.80
2018-07-11T04:57:02.629Z,11.77
2018-07-11T04:59:31.375Z,10.80
2018-07-11T05:01:59.715Z,10.50
2018-07-11T05:04:28.564Z,10.67
2018-07-11T05:06:57.322Z,10.23
2018-07-11T05:09:25.760Z,10.80
2018-07-11T05:11:53.995Z,11.70
2018-07-11T05:14:22.380Z,10.63
2018-07-11T05:16:50.975Z,12.20
2018-07-11T05:19:19.403Z,11.50
2018-07-11T05:21:47.852Z,11.93
2018-07-11T05:24:16.372Z,10.03
2018-07-11T05:26:44.815Z,10.87
2018-07-11T05:29:13.905Z,10.50
2018-07-11T05:31:42.216Z,11.67
2018-07-11T05:34:16.117Z,12.30
2018-07-11T05:36:44.220Z,11.23
2018-07-11T05:39:12.331Z,10.73
2018-07-11T05:41:41.049Z,12.57
2018-07-11T05:44:09.695Z,12.23
2018-07-11T05:46:38.552Z,13.20
2018-07-11T05:49:06.990Z,12.50
2018-07-11T05:51:35.749Z,12.13
2018-07-11T05:54:03.842Z,12.30
2018-07-11T05:56:32.900Z,12.88
2018-07-11T05:59:01.619Z,11.90
2018-07-11T06:01:30.096Z,12.87
2018-07-11T06:03:58.358Z,12.30
2018-07-11T06:06:26.677Z,13.20
2018-07-11T06:08:55.101Z,12.37
2018-07-11T06:11:25.049Z,12.93
2018-07-11T06:13:54.179Z,12.70
2018-07-11T06:16:23.370Z,12.43
2018-07-11T06:18:51.649Z,13.80
2018-07-11T06:21:22.790Z,13.57
2018-07-11T06:23:51.936Z,14.27
2018-07-11T06:26:20.359Z,13.67
2018-07-11T06:28:48.826Z,13.40
2018-07-11T06:31:17.028Z,13.77
2018-07-11T06:33:45.752Z,14.03
2018-07-11T06:36:14.316Z,12.57
2018-07-11T06:38:42.407Z,13.90
2018-07-11T06:41:10.861Z,14.47
2018-07-11T06:43:38.971Z,15.17
2018-07-11T06:46:07.853Z,14.40
2018-07-11T06:48:36.327Z,14.53
2018-07-11T06:51:05.196Z,15.13
2018-07-11T06:53:33.944Z,16.62
2018-07-11T06:56:02.660Z,15.43
2018-07-11T06:58:30.936Z,16.05
2018-07-11T07:00:59.353Z,14.87
2018-07-11T07:03:28.112Z,15.60
2018-07-11T07:05:57.020Z,15.30
2018-07-11T07:08:25.755Z,15.58
2018-07-11T07:10:53.844Z,15.43
2018-07-11T07:13:23.259Z,15.72
2018-07-11T07:15:51.793Z,15.17
2018-07-11T07:18:19.926Z,14.87
2018-07-11T07:20:48.350Z,15.10
2018-07-11T07:23:17.012Z,16.00
2018-07-11T07:25:45.721Z,16.77
2018-07-11T07:28:13.872Z,15.80
2018-07-11T07:30:41.956Z,14.03
2018-07-11T07:33:10.421Z,15.27
2018-07-11T07:35:39.116Z,15.20
2018-07-11T07:38:07.843Z,15.08
2018-07-11T07:40:36.389Z,14.83
2018-07-11T07:43:05.328Z,13.90
2018-07-11T07:45:33.992Z,15.80
2018-07-11T07:48:02.178Z,14.57
2018-07-11T07:50:31.004Z,14.87
2018-07-11T07:53:00.149Z,14.70
2018-07-11T07:55:28.697Z,16.35
2018-07-11T07:57:57.043Z,17.57
2018-07-11T08:00:25.136Z,18.43
2018-07-11T08:02:53.534Z,15.03
2018-07-11T08:05:23.044Z,16.73
2018-07-11T08:07:51.557Z,17.00
2018-07-11T08:10:20.159Z,17.40
2018-07-11T08:12:48.883Z,17.50
2018-07-11T08:15:17.192Z,18.33
2018-07-11T08:17:45.931Z,16.60
2018-07-11T08:20:14.359Z,17.83
2018-07-11T08:23:23.152Z,18.33
2018-07-11T08:26:03.669Z,17.97
2018-07-11T08:29:43.585Z,16.27
2018-07-11T08:32:54.456Z,18.40
2018-07-11T08:35:34.430Z,18.40
2018-07-11T08:40:29.338Z,17.77
2018-07-11T08:45:13.674Z,19.37
2018-07-11T08:52:03.620Z,20.93
2018-07-11T08:54:43.303Z,17.77
2018-07-11T08:57:23.120Z,19.92
2018-07-11T09:00:05.753Z,22.00
2018-07-11T09:05:16.860Z,21.67
2018-07-11T09:07:55.280Z,20.30
2018-07-11T09:11:40.312Z,20.15
2018-07-11T09:14:21.044Z,20.43
2018-07-11T09:17:07.760Z,21.00
2018-07-11T09:19:47.451Z,21.30
2018-07-11T09:22:24.983Z,20.27
2018-07-11T09:24:53.636Z,21.03
2018-07-11T09:27:23.545Z,21.50
2018-07-11T09:29:52.792Z,20.63
2018-07-11T09:32:20.916Z,20.97
2018-07-11T09:34:49.603Z,20.60
2018-07-11T09:37:18.388Z,23.73
2018-07-11T09:39:46.724Z,21.87
2018-07-11T09:42:15.167Z,21.93
2018-07-11T09:44:43.812Z,22.37
2018-07-11T09:47:17.488Z,23.23
2018-07-11T09:49:45.914Z,22.82
2018-07-11T09:52:14.051Z,24.80
2018-07-11T09:54:42.343Z,22.07
2018-07-11T09:57:11.108Z,22.77
2018-07-11T09:59:39.739Z,21.80
2018-07-11T10:02:07.996Z,21.23
2018-07-11T10:04:36.888Z,21.70
2018-07-11T10:07:05.668Z,22.53
2018-07-11T10:09:34.764Z,22.70
2018-07-11T10:12:03.196Z,22.67
2018-07-11T10:14:31.471Z,24.20
2018-07-11T10:17:00.159Z,24.30
2018-07-11T10:19:28.285Z,24.47
2018-07-11T10:21:56.392Z,26.37
2018-07-11T10:24:25.123Z,24.00
2018-07-11T10:26:53.979Z,24.57
2018-07-11T10:29:23.549Z,23.95
2018-07-11T10:31:52.488Z,24.90
2018-07-11T10:34:20.837Z,25.83
2018-07-11T10:36:48.968Z,26.67
2018-07-11T10:39:17.224Z,25.17
2018-07-11T10:41:45.676Z,26.83
2018-07-11T10:44:14.171Z,26.53
2018-07-11T10:46:42.592Z,28.43
2018-07-11T10:49:11.623Z,29.00
2018-07-11T10:51:39.738Z,29.40
2018-07-11T10:54:08.260Z,28.37
2018-07-11T10:56:36.451Z,26.57
2018-07-11T10:59:05.075Z,28.90
2018-07-11T11:01:33.490Z,26.13
2018-07-11T11:04:02.579Z,25.00
2018-07-11T11:06:31.748Z,24.98
2018-07-11T11:09:00.385Z,25.35
2018-07-11T11:11:29.076Z,24.23
2018-07-11T11:13:57.633Z,22.33
2018-07-11T11:16:26.463Z,21.27
2018-07-11T11:18:54.559Z,21.03
2018-07-11T11:21:23.706Z,18.23
2018-07-11T11:23:52.036Z,18.10
2018-07-11T11:26:20.402Z,18.50
2018-07-11T11:28:48.597Z,14.77
2018-07-11T11:31:17.011Z,12.33
2018-07-11T11:33:45.380Z,11.10
2018-07-11T11:36:13.924Z,9.80
2018-07-11T11:38:42.887Z,9.10
2018-07-11T11:41:11.396Z,8.90
2018-07-11T11:43:40.104Z,9.53
2018-07-11T11:46:08.577Z,8.47
2018-07-11T11:48:37.279Z,7.97
2018-07-11T11:51:05.432Z,6.13
2018-07-11T11:53:33.547Z,6.07
2018-07-11T11:56:01.889Z,6.27
2018-07-11T11:58:30.504Z,6.30
2018-07-11T12:00:58.875Z,6.43
2018-07-11T12:03:27.708Z,7.03
2018-07-11T12:05:55.867Z,6.57
2018-07-11T12:08:24.623Z,8.37
2018-07-11T12:10:52.952Z,7.17
2018-07-11T12:13:21.556Z,9.37
2018-07-11T12:15:50.008Z,11.47
2018-07-11T12:18:18.715Z,11.37
2018-07-11T12:20:47.068Z,11.30
2018-07-11T12:23:15.260Z,9.40
2018-07-11T12:25:54.395Z,9.40
2018-07-11T12:28:23.836Z,9.20
2018-07-11T12:30:51.953Z,10.23
2018-07-11T12:33:20.603Z,11.20
2018-07-11T12:35:48.725Z,12.03
2018-07-11T12:38:17.072Z,10.57
2018-07-11T12:40:45.304Z,10.67
2018-07-11T12:43:13.656Z,11.17
2018-07-11T12:45:42.099Z,12.03
2018-07-11T12:48:15.821Z,13.20
2018-07-11T12:50:43.952Z,12.90
2018-07-11T12:53:12.361Z,13.20
2018-07-11T12:55:40.775Z,11.83
2018-07-11T12:58:09.202Z,14.83
2018-07-11T13:00:38.080Z,14.10
2018-07-11T13:03:06.420Z,15.60
2018-07-11T13:05:34.863Z,17.17
2018-07-11T13:08:03.208Z,17.97
2018-07-11T13:10:31.734Z,16.25
2018-07-11T13:13:00.408Z,16.10
2018-07-11T13:15:29.080Z,16.00
2018-07-11T13:17:57.804Z,17.30
2018-07-11T13:20:26.496Z,14.70
2018-07-11T13:22:54.877Z,14.10
2018-07-11T13:25:24.206Z,15.23
2018-07-11T13:27:53.728Z,15.10
2018-07-11T13:30:22.483Z,14.70
2018-07-11T13:32:50.600Z,13.80
2018-07-11T13:35:18.940Z,13.20
2018-07-11T13:37:47.399Z,10.03
2018-07-11T13:40:15.498Z,11.13
2018-07-11T13:42:43.788Z,12.23
2018-07-11T13:45:12.243Z,12.03
2018-07-11T13:47:40.652Z,9.63
2018-07-11T13:50:08.740Z,9.73
2018-07-11T13:52:37.095Z,9.23
2018-07-11T13:55:05.788Z,8.80
2018-07-11T13:57:34.315Z,8.98
2018-07-11T14:00:03.054Z,10.97
2018-07-11T14:02:31.688Z,9.80
2018-07-11T14:05:00.120Z,10.70
2018-07-11T14:07:28.508Z,9.77
2018-07-11T14:09:57.053Z,10.80
2018-07-11T14:12:25.988Z,9.73
2018-07-11T14:14:54.649Z,9.00
2018-07-11T14:17:24.264Z,8.65
2018-07-11T14:19:52.904Z,6.97
2018-07-11T14:22:21.024Z,7.33
2018-07-11T14:24:49.342Z,8.20
2018-07-11T14:27:18.415Z,8.70
2018-07-11T14:29:46.919Z,8.20
2018-07-11T14:32:15.486Z,6.90
2018-07-11T14:34:43.808Z,7.73
2018-07-11T14:37:11.908Z,6.40
2018-07-11T14:39:40.292Z,6.17
2018-07-11T14:42:08.761Z,5.13
2018-07-11T14:44:37.348Z,4.90
2018-07-11T14:47:09.920Z,5.03
2018-07-11T14:49:38.300Z,6.10
2018-07-11T14:52:07.089Z,5.53
2018-07-11T14:54:35.976Z,5.53
2018-07-11T14:57:04.355Z,5.27
2018-07-11T14:59:32.958Z,5.60
2018-07-11T15:02:01.593Z,5.50
2018-07-11T15:04:29.933Z,4.77
2018-07-11T15:06:58.216Z,4.73
2018-07-11T15:09:26.816Z,5.57
2018-07-11T15:11:55.261Z,4.93
2018-07-11T15:14:24.156Z,5.60
2018-07-11T15:16:52.280Z,5.47
2018-07-11T15:19:20.986Z,5.33
2018-07-11T15:21:49.320Z,5.27
2018-07-11T15:24:18.153Z,5.17
2018-07-11T15:26:46.844Z,4.60
2018-07-11T15:29:15.200Z,5.20
2018-07-11T15:31:43.544Z,5.83
2018-07-11T15:34:12.251Z,5.00
2018-07-11T15:36:41.149Z,4.90
2018-07-11T15:39:12.512Z,5.00
2018-07-11T15:41:41.125Z,4.40
2018-07-11T15:44:09.796Z,4.57
2018-07-11T15:46:38.249Z,4.67
2018-07-11T15:49:06.689Z,4.53
2018-07-11T15:51:35.504Z,4.27
2018-07-11T15:54:03.897Z,4.60
2018-07-11T15:56:32.410Z,4.93
2018-07-11T15:59:05.415Z,5.20
2018-07-11T16:01:37.328Z,4.23
2018-07-11T16:04:05.667Z,5.50
2018-07-11T16:06:34.295Z,5.60
2018-07-11T16:09:05.005Z,6.17
2018-07-11T16:11:33.589Z,6.20
2018-07-11T16:14:02.060Z,7.27
2018-07-11T16:16:30.404Z,6.37
2018-07-11T16:18:59.093Z,6.13
2018-07-11T16:21:27.798Z,6.07
2018-07-11T16:23:56.135Z,5.80
2018-07-11T16:26:24.409Z,6.23
2018-07-11T16:28:53.144Z,5.30
2018-07-11T16:31:21.504Z,7.17
2018-07-11T16:33:49.941Z,6.10
2018-07-11T16:36:18.025Z,6.30
2018-07-11T16:38:46.376Z,6.10
2018-07-11T16:41:14.736Z,5.60
2018-07-11T16:43:42.895Z,5.93
2018-07-11T16:46:11.583Z,6.00
2018-07-11T16:48:40.889Z,5.55
2018-07-11T16:51:09.204Z,5.60
2018-07-11T16:53:38.881Z,5.20
2018-07-11T16:56:07.468Z,4.67
2018-07-11T16:58:41.403Z,5.58
2018-07-11T17:01:09.760Z,5.43
2018-07-11T17:03:40.585Z,5.25
2018-07-11T17:06:09.661Z,4.63
2018-07-11T17:08:43.818Z,6.00
2018-07-11T17:11:18.032Z,5.70
2018-07-11T17:13:52.952Z,5.10
2018-07-11T17:16:24.204Z,6.03
2018-07-11T17:18:56.220Z,6.40
2018-07-11T17:21:30.323Z,5.50
2018-07-11T17:24:03.887Z,6.33
2018-07-11T17:26:32.529Z,5.87
2018-07-11T17:29:01.371Z,6.50
2018-07-11T17:31:30.120Z,6.30
2018-07-11T17:33:58.935Z,7.10
2018-07-11T17:36:29.821Z,6.83
2018-07-11T17:38:58.164Z,6.67
2018-07-11T17:41:26.657Z,6.33
2018-07-11T17:43:55.380Z,6.13
2018-07-11T17:46:24.984Z,6.60
2018-07-11T17:49:06.201Z,7.07
2018-07-11T17:51:45.932Z,6.73
2018-07-11T17:54:14.132Z,6.80
2018-07-11T17:56:48.099Z,6.17
2018-07-11T17:59:16.268Z,6.30
2018-07-11T18:01:50.531Z,6.67
2018-07-11T18:04:30.680Z,6.37
2018-07-11T18:07:03.084Z,6.10
2018-07-11T18:09:39.600Z,6.07
2018-07-11T18:12:15.287Z,5.20
2018-07-11T18:16:58.952Z,5.03
2018-07-11T18:20:38.696Z,5.10
2018-07-11T18:23:19.658Z,5.70
2018-07-11T18:26:00.952Z,5.00
2018-07-11T18:28:40.232Z,5.45
2018-07-11T18:31:19.634Z,5.90
2018-07-11T18:35:31.131Z,5.43
2018-07-11T18:38:14.184Z,5.20
2018-07-11T18:40:53.542Z,5.57
2018-07-11T18:43:32.948Z,6.10
2018-07-11T18:46:17.158Z,5.60
2018-07-11T18:50:59.389Z,6.77
2018-07-11T18:53:50.340Z,6.70
2018-07-11T18:58:33.439Z,6.53
2018-07-11T19:01:09.536Z,6.73
2018-07-11T19:03:44.824Z,7.17
2018-07-11T19:07:19.568Z,6.83
2018-07-11T19:09:51.203Z,7.30
2018-07-11T19:12:27.072Z,8.03
2018-07-11T19:15:11.175Z,7.67
2018-07-11T19:17:55.749Z,6.90
2018-07-11T19:20:31.283Z,8.15
2018-07-11T19:23:11.448Z,7.77
2018-07-11T19:25:51.456Z,6.90
2018-07-11T19:29:01.869Z,7.20
2018-07-11T19:31:41.380Z,7.25
2018-07-11T19:34:20.024Z,6.87
2018-07-11T19:37:02.233Z,6.83
2018-07-11T19:41:50.860Z,7.83
2018-07-11T19:44:30.715Z,7.50
2018-07-11T19:48:36.500Z,7.60
2018-07-11T19:53:27.681Z,7.67
2018-07-11T19:56:05.753Z,7.10
2018-07-11T19:58:34.088Z,8.37
2018-07-11T20:01:02.493Z,7.23
2018-07-11T20:03:32.968Z,8.00
2018-07-11T20:06:01.289Z,8.23
2018-07-11T20:08:30.130Z,6.80
2018-07-11T20:10:58.425Z,8.43
2018-07-11T20:13:26.940Z,7.03
2018-07-11T20:15:55.594Z,8.30
2018-07-11T20:18:25.352Z,9.08
2018-07-11T20:20:53.827Z,8.63
2018-07-11T20:23:22.562Z,8.30
2018-07-11T20:25:51.519Z,8.97
2018-07-11T20:28:20.120Z,9.57
2018-07-11T20:30:49.398Z,9.30
2018-07-11T20:33:17.757Z,8.53
2018-07-11T20:35:46.184Z,9.40
2018-07-11T20:38:15.552Z,9.47
2018-07-11T20:40:43.888Z,9.20
2018-07-11T20:43:12.217Z,10.33
2018-07-11T20:45:49.649Z,9.85
2018-07-11T20:48:17.760Z,9.30
2018-07-11T20:50:46.057Z,9.60
2018-07-11T20:53:14.912Z,9.10
2018-07-11T20:55:43.564Z,9.40
2018-07-11T20:58:23.247Z,10.17
2018-07-11T21:03:12.109Z,9.37
2018-07-11T21:05:55.209Z,10.65
2018-07-11T21:08:34.923Z,10.70
2018-07-11T21:11:16.811Z,11.43
2018-07-11T21:15:59.578Z,11.30
2018-07-11T21:18:39.088Z,10.93
2018-07-11T21:21:07.542Z,10.40
2018-07-11T21:23:36.214Z,11.05
2018-07-11T21:26:05.114Z,11.20
2018-07-11T21:28:33.511Z,11.08
2018-07-11T21:31:01.652Z,11.10
2018-07-11T21:33:29.944Z,10.77
2018-07-11T21:35:58.471Z,12.58
2018-07-11T21:38:26.892Z,10.60
2018-07-11T21:40:55.567Z,9.80
2018-07-11T21:43:26.292Z,11.50
2018-07-11T21:45:54.852Z,11.90
2018-07-11T21:48:23.298Z,12.70
2018-07-11T21:50:52.051Z,13.20
2018-07-11T21:53:20.308Z,13.67
2018-07-11T21:55:48.726Z,11.93
2018-07-11T21:58:17.177Z,12.80
2018-07-11T22:00:45.725Z,14.50
2018-07-11T22:03:13.846Z,14.87
2018-07-11T22:05:42.307Z,14.30
2018-07-11T22:08:10.804Z,13.67
2018-07-11T22:10:39.915Z,12.13
2018-07-11T22:13:08.431Z,12.00
2018-07-11T22:15:37.108Z,13.95
2018-07-11T22:18:17.023Z,14.70
2018-07-11T22:20:44.377Z,15.43
2018-07-11T22:23:11.877Z,13.93
2018-07-11T22:25:39.369Z,14.23
2018-07-11T22:28:06.823Z,15.93
2018-07-11T22:30:34.115Z,15.40
2018-07-11T22:33:01.281Z,14.80
2018-07-11T22:35:28.428Z,16.60
2018-07-11T22:37:55.827Z,17.03
2018-07-11T22:40:24.195Z,15.38
2018-07-11T22:42:51.355Z,17.53
2018-07-11T22:45:18.757Z,18.40
2018-07-11T22:47:45.959Z,18.20
2018-07-11T22:50:13.124Z,18.17
2018-07-11T22:52:40.354Z,19.27
2018-07-11T22:55:07.944Z,19.10
2018-07-11T22:57:35.132Z,18.32
2018-07-11T23:00:02.295Z,17.60
2018-07-11T23:02:29.736Z,16.23
2018-07-11T23:04:57.227Z,17.20
2018-07-11T23:07:24.383Z,16.57
2018-07-11T23:09:51.964Z,15.00
2018-07-11T23:12:19.304Z,17.77
2018-07-11T23:14:46.764Z,15.35
2018-07-11T23:17:14.035Z,16.07
2018-07-11T23:19:41.185Z,15.67
2018-07-11T23:22:08.351Z,14.27
2018-07-11T23:24:36.026Z,16.27
2018-07-11T23:27:03.177Z,15.93
2018-07-11T23:29:30.732Z,16.75
2018-07-11T23:31:58.099Z,16.90
2018-07-11T23:34:25.319Z,17.43
2018-07-11T23:36:52.944Z,16.37
2018-07-11T23:39:20.111Z,16.40
2018-07-11T23:41:47.269Z,19.93
2018-07-11T23:44:14.455Z,20.17
2018-07-11T23:46:41.896Z,20.40
2018-07-11T23:49:09.071Z,21.33
2018-07-11T23:51:36.248Z,24.73
2018-07-11T23:54:03.415Z,25.37
2018-07-11T23:56:30.876Z,25.52
2018-07-11T23:58:58.184Z,23.30
